GCRR METAR and TAF | Updated Today

GCRR METAR

Lanzarote Airport

Observation time: 23 min. ago

GCRR 061900Z 30005G16KT 270V350 9999 FEW022 SCT040 17/09 Q1021

Need help? Read our tutorial on how to read METARs or read the parsed version below.

Lanzarote Airport (GCRR) METAR

  • Weather conditions on Mon, 06 Feb 2023 19:00:00 +0000 (23 min. ago):
  • Present conditions: Dry
  • Clouds: A few at 671 meters; scattered at 1219 meters
  • Visibility: Greater than 10 km
  • Wind: 300 degrees at 5 knots
  • Temperature: 17 celsius
  • Dew point: 9 celsius
  • Pressure: 1021 millibars
  • Remarks: None


Useful to know...

GCRR TAF

Lanzarote Airport

TAF GCRR 061400Z 0615/0715 12006KT 9999 SCT030 TX20/0714Z TN12/0706Z BECMG 0617/0619 33010KT PROB40 TEMPO 0615/0618 TSRA SCT035CB
Observation time: 5:23 hr. ago
Need help? Read our tutorial on how to read TAFs or read the parsed version below.

Parsed version of TAF for Lanzarote Airport (GCRR)

  • From 06 February at 15:00 UTC, to day 07 of the month at 15:00 UTC
  • Clouds: Scattered at 914 meters
  • Visibility: Greater than 10 km
  • Wind: 120 degrees at 6
  • Expected to arise soon, from 06 February at 17:00 UTC, to day 06 of the month at 19:00 UTC
  • Wind: 330 degrees at 10
  • Expected to arise temporarily, from 06 February at 15:00 UTC, to day 06 of the month at 18:00 UTC
    Probability of 40%
  • Clouds: Scattered at 1067 meters, cumulonimbus